Gardiner, MT (59030)

6:40 PM MDT on July 12, 2014 (GMT -0600)
Yellowstone (KWYS) Elev 6644 ft | 44.69 °N, 111.12 °W | Change Station

Current weather conditions updated 10 minutes ago

Clear
Clear
66 °F
Feels Like 66 °F
N
4
Wind Variable Wind from East

Tomorrow is forecast to be Warmer than today.

Today
High -- | Low -- °F
--% Chance of Precip.
Yesterday
High -- | Low -- °F
Precip. -- in
5:47 AM 9:08 PM
Full, 100% visible
Pressure 30.39 in
Visibility 10.0 miles
Clouds Clear
Dew Point 55 °F
Humidity 68%
Rainfall 0.29 in
Snow Depth Not available.
UV 2 out of 12
Pollen 4.40 out of 12
Air Quality Not available.
Flu Activity Sporadic
METAR KWYS 130030Z AUTO 09003KT 10SM CLR 19/13 A3039 RMK AO2

More Conditions Fewer Conditions

Pressure 30.39 in
Visibility 10.0 miles
Clouds Clear
Dew Point 55 °F
Humidity 68%
Rainfall 0.29 in
Snow Depth Not available.
UV 2 out of 12
Pollen 4.40 out of 12
Air Quality Not available.
Flu Activity Sporadic
METAR KWYS 130030Z AUTO 09003KT 10SM CLR 19/13 A3039 RMK AO2

More Conditions Fewer Conditions

10-Day Weather Forecast

Almanac

Astronomy

Jul. 12, 2014 Rise Set
Actual Time 5:47 AM MDT 9:08 PM MDT
Civil Twilight 5:11 AM MDT 9:44 PM MDT
Nautical Twilight 4:24 AM MDT 10:32 PM MDT
Astronomical Twilight 3:24 AM MDT 11:31 PM MDT
Moon 9:07 PM MDT (7/12) 6:15 AM MDT (7/12)
Length of Visible Light 16h 33m
Length of Day
15h 21m
Tomorrow will be 1m 30s shorter.
Full, 100% of the Moon is Illuminated
Today
Full
Jul 18
Last Quarter
Jul 26
New
Aug 3
First Quarter
Aug 10
Full

Today's Extremes

State Highs State Lows

Community

WunderPhotos

Upload Photos

1,733,016 photos uploaded!

WunderBlogs® & News

Nearby

Snow Depth

Station Depth Elevation
Monument Peak 0 in 8850 ft
Shower Falls 0 in 8100 ft
Carrot Basin 0 in 9000 ft
Northeast Entrance 1 in 7350 ft
Lone Mountain 1 in 8880 ft

Earthquake Activity

City Distance Mag. Time & Date
Old Faithful Geyser, Wyoming 30 miles 2.5 9:54 AM MDT
2014-07-06
Old Faithful Geyser, Wyoming 31 miles 2.5 9:46 AM MDT
2014-07-06
Minimum magnitude displayed is 2.5.

Coastal Water Temperatures

Place Temperature
No Stations Reporting

Nearby Weather Stations

Station Location Temp. Heat Index Dew Point Humidity Wind Precip. Elev Updated Type
HADS MAMMOTH AT YELLOWSTONE NP WY, Yellowstone National Park, WY 74 °F 77 °F 48 °F 40% NW  at  6 mph 0.00 in / hr 6298 ft 5:15 PM MDT MADIS
HADS TOWER FALLS RANGER STATION AT YE WY, Yellowstone National Park, WY 76 °F 78 °F 51 °F 42% NNW  at  5 mph 0.00 in / hr 6266 ft 5:15 PM MDT MADIS
RAWS WICKED CREEK MT, Pray, MT 67 °F - 42 °F 40% WNW  at  12 mph 0.00 in / hr 7604 ft 5:07 PM MDT MADIS
MesoWest CANYON , Yellowstone National Park, WY 63 °F - - - North  at  - 0.00 in / hr 8089 ft 5:00 PM MDT MADIS

Show More Stations Show Fewer Stations